sensor_id;sensor_type;location;lat;lon;timestamp;P1;durP1;ratioP1;P2;durP2;ratioP2
20751;SDS011;10536;51.582;5.016;2022-11-20T00:04:07;20.30;;;12.23;;
20751;SDS011;10536;51.582;5.016;2022-11-20T00:09:09;23.50;;;13.38;;
20751;SDS011;10536;51.582;5.016;2022-11-20T00:14:10;20.30;;;13.27;;
20751;SDS011;10536;51.582;5.016;2022-11-20T00:19:10;28.88;;;14.65;;
20751;SDS011;10536;51.582;5.016;2022-11-20T00:24:10;22.70;;;13.55;;
20751;SDS011;10536;51.582;5.016;2022-11-20T00:29:11;24.02;;;13.88;;
20751;SDS011;10536;51.582;5.016;2022-11-20T00:34:12;31.65;;;14.63;;
20751;SDS011;10536;51.582;5.016;2022-11-20T00:39:12;28.33;;;13.75;;
20751;SDS011;10536;51.582;5.016;2022-11-20T00:44:13;34.47;;;15.07;;
20751;SDS011;10536;51.582;5.016;2022-11-20T00:49:13;24.50;;;14.63;;
20751;SDS011;10536;51.582;5.016;2022-11-20T00:54:13;24.80;;;14.13;;
20751;SDS011;10536;51.582;5.016;2022-11-20T00:59:14;29.05;;;15.45;;
20751;SDS011;10536;51.582;5.016;2022-11-20T01:04:14;27.10;;;13.98;;
20751;SDS011;10536;51.582;5.016;2022-11-20T01:09:15;28.75;;;15.20;;
20751;SDS011;10536;51.582;5.016;2022-11-20T01:14:16;24.80;;;14.48;;
20751;SDS011;10536;51.582;5.016;2022-11-20T01:19:19;29.00;;;15.55;;
20751;SDS011;10536;51.582;5.016;2022-11-20T01:24:21;26.42;;;14.63;;
20751;SDS011;10536;51.582;5.016;2022-11-20T01:29:23;28.92;;;14.85;;
20751;SDS011;10536;51.582;5.016;2022-11-20T01:34:24;25.25;;;15.30;;
20751;SDS011;10536;51.582;5.016;2022-11-20T01:39:25;24.90;;;14.60;;
20751;SDS011;10536;51.582;5.016;2022-11-20T01:49:58;27.50;;;15.43;;
20751;SDS011;10536;51.582;5.016;2022-11-20T01:55:09;29.20;;;15.88;;
20751;SDS011;10536;51.582;5.016;2022-11-20T02:00:14;27.58;;;14.98;;
20751;SDS011;10536;51.582;5.016;2022-11-20T02:10:34;34.65;;;17.73;;
20751;SDS011;10536;51.582;5.016;2022-11-20T02:15:35;27.90;;;16.08;;
20751;SDS011;10536;51.582;5.016;2022-11-20T02:20:35;32.78;;;17.02;;
20751;SDS011;10536;51.582;5.016;2022-11-20T02:25:36;33.03;;;18.13;;
20751;SDS011;10536;51.582;5.016;2022-11-20T02:30:37;35.55;;;17.35;;
20751;SDS011;10536;51.582;5.016;2022-11-20T02:35:41;34.67;;;16.58;;
20751;SDS011;10536;51.582;5.016;2022-11-20T02:40:43;26.98;;;15.43;;
20751;SDS011;10536;51.582;5.016;2022-11-20T02:45:44;28.95;;;16.02;;
20751;SDS011;10536;51.582;5.016;2022-11-20T02:50:44;29.52;;;17.30;;
20751;SDS011;10536;51.582;5.016;2022-11-20T02:55:44;31.42;;;16.60;;
20751;SDS011;10536;51.582;5.016;2022-11-20T03:00:45;28.45;;;16.05;;
20751;SDS011;10536;51.582;5.016;2022-11-20T03:05:45;29.63;;;16.98;;
20751;SDS011;10536;51.582;5.016;2022-11-20T03:10:46;24.80;;;15.30;;
20751;SDS011;10536;51.582;5.016;2022-11-20T03:15:46;28.17;;;16.48;;
20751;SDS011;10536;51.582;5.016;2022-11-20T03:20:46;31.45;;;15.70;;
20751;SDS011;10536;51.582;5.016;2022-11-20T03:25:47;30.33;;;16.35;;
20751;SDS011;10536;51.582;5.016;2022-11-20T03:30:47;24.17;;;15.10;;
20751;SDS011;10536;51.582;5.016;2022-11-20T03:35:48;27.25;;;15.38;;
20751;SDS011;10536;51.582;5.016;2022-11-20T03:40:48;30.75;;;16.95;;
20751;SDS011;10536;51.582;5.016;2022-11-20T03:45:48;27.02;;;14.80;;
20751;SDS011;10536;51.582;5.016;2022-11-20T03:50:49;36.03;;;17.73;;
20751;SDS011;10536;51.582;5.016;2022-11-20T03:55:52;31.63;;;16.85;;
20751;SDS011;10536;51.582;5.016;2022-11-20T04:00:53;29.85;;;16.52;;
20751;SDS011;10536;51.582;5.016;2022-11-20T04:05:53;27.50;;;16.55;;
20751;SDS011;10536;51.582;5.016;2022-11-20T04:10:53;25.97;;;16.33;;
20751;SDS011;10536;51.582;5.016;2022-11-20T04:15:56;29.98;;;16.35;;
20751;SDS011;10536;51.582;5.016;2022-11-20T04:20:57;31.10;;;17.73;;
20751;SDS011;10536;51.582;5.016;2022-11-20T04:26:05;42.05;;;17.80;;
20751;SDS011;10536;51.582;5.016;2022-11-20T04:31:11;33.28;;;17.00;;
20751;SDS011;10536;51.582;5.016;2022-11-20T04:36:14;26.80;;;15.75;;
20751;SDS011;10536;51.582;5.016;2022-11-20T04:41:24;25.40;;;15.50;;
20751;SDS011;10536;51.582;5.016;2022-11-20T04:46:27;27.40;;;16.08;;
20751;SDS011;10536;51.582;5.016;2022-11-20T04:51:27;31.90;;;16.02;;
20751;SDS011;10536;51.582;5.016;2022-11-20T04:56:28;26.20;;;16.42;;
20751;SDS011;10536;51.582;5.016;2022-11-20T05:01:29;27.13;;;16.33;;
20751;SDS011;10536;51.582;5.016;2022-11-20T05:06:29;28.75;;;16.45;;
20751;SDS011;10536;51.582;5.016;2022-11-20T05:11:31;23.65;;;13.73;;
20751;SDS011;10536;51.582;5.016;2022-11-20T05:16:33;24.45;;;15.48;;
20751;SDS011;10536;51.582;5.016;2022-11-20T05:21:35;29.98;;;16.70;;
20751;SDS011;10536;51.582;5.016;2022-11-20T05:26:35;26.80;;;15.90;;
20751;SDS011;10536;51.582;5.016;2022-11-20T05:31:36;27.15;;;16.58;;
20751;SDS011;10536;51.582;5.016;2022-11-20T05:36:37;34.80;;;18.13;;
20751;SDS011;10536;51.582;5.016;2022-11-20T05:41:37;33.00;;;16.42;;
20751;SDS011;10536;51.582;5.016;2022-11-20T05:46:38;31.75;;;16.58;;
20751;SDS011;10536;51.582;5.016;2022-11-20T05:51:38;31.45;;;16.55;;
20751;SDS011;10536;51.582;5.016;2022-11-20T05:56:38;29.73;;;16.52;;
20751;SDS011;10536;51.582;5.016;2022-11-20T06:01:39;29.55;;;16.75;;
20751;SDS011;10536;51.582;5.016;2022-11-20T06:06:39;33.72;;;17.02;;
20751;SDS011;10536;51.582;5.016;2022-11-20T06:11:40;29.45;;;16.80;;
20751;SDS011;10536;51.582;5.016;2022-11-20T06:16:40;31.05;;;17.63;;
20751;SDS011;10536;51.582;5.016;2022-11-20T06:21:40;28.27;;;16.95;;
20751;SDS011;10536;51.582;5.016;2022-11-20T06:26:41;29.98;;;16.67;;
20751;SDS011;10536;51.582;5.016;2022-11-20T06:31:41;32.92;;;17.38;;
20751;SDS011;10536;51.582;5.016;2022-11-20T06:36:42;32.90;;;17.73;;
20751;SDS011;10536;51.582;5.016;2022-11-20T06:41:43;32.75;;;18.60;;
20751;SDS011;10536;51.582;5.016;2022-11-20T06:46:43;37.67;;;19.02;;
20751;SDS011;10536;51.582;5.016;2022-11-20T06:51:43;37.22;;;18.80;;
20751;SDS011;10536;51.582;5.016;2022-11-20T06:56:46;35.13;;;18.30;;
20751;SDS011;10536;51.582;5.016;2022-11-20T07:01:47;35.50;;;18.57;;
20751;SDS011;10536;51.582;5.016;2022-11-20T07:06:48;34.83;;;18.92;;
20751;SDS011;10536;51.582;5.016;2022-11-20T07:11:48;34.47;;;19.60;;
20751;SDS011;10536;51.582;5.016;2022-11-20T07:16:49;40.27;;;19.20;;
20751;SDS011;10536;51.582;5.016;2022-11-20T07:21:49;36.13;;;18.35;;
20751;SDS011;10536;51.582;5.016;2022-11-20T07:26:49;39.58;;;20.23;;
20751;SDS011;10536;51.582;5.016;2022-11-20T07:31:50;38.25;;;20.10;;
20751;SDS011;10536;51.582;5.016;2022-11-20T07:36:50;37.95;;;20.15;;
20751;SDS011;10536;51.582;5.016;2022-11-20T07:41:50;37.15;;;19.52;;
20751;SDS011;10536;51.582;5.016;2022-11-20T07:46:51;38.45;;;19.90;;
20751;SDS011;10536;51.582;5.016;2022-11-20T07:51:51;43.33;;;22.00;;
20751;SDS011;10536;51.582;5.016;2022-11-20T07:56:55;35.93;;;19.80;;
20751;SDS011;10536;51.582;5.016;2022-11-20T08:01:56;35.25;;;19.58;;
20751;SDS011;10536;51.582;5.016;2022-11-20T08:06:56;34.00;;;19.52;;
20751;SDS011;10536;51.582;5.016;2022-11-20T08:11:57;38.53;;;18.70;;
20751;SDS011;10536;51.582;5.016;2022-11-20T08:17:15;36.33;;;18.90;;
20751;SDS011;10536;51.582;5.016;2022-11-20T08:22:16;36.78;;;19.70;;
20751;SDS011;10536;51.582;5.016;2022-11-20T08:27:17;36.63;;;19.90;;
20751;SDS011;10536;51.582;5.016;2022-11-20T08:32:18;35.92;;;20.38;;
20751;SDS011;10536;51.582;5.016;2022-11-20T08:37:18;35.35;;;20.80;;
20751;SDS011;10536;51.582;5.016;2022-11-20T08:42:18;37.08;;;20.40;;
20751;SDS011;10536;51.582;5.016;2022-11-20T08:47:19;38.97;;;20.75;;
20751;SDS011;10536;51.582;5.016;2022-11-20T08:52:19;39.87;;;22.17;;
20751;SDS011;10536;51.582;5.016;2022-11-20T08:57:19;42.63;;;21.63;;
20751;SDS011;10536;51.582;5.016;2022-11-20T09:02:20;45.25;;;21.70;;
20751;SDS011;10536;51.582;5.016;2022-11-20T09:07:20;34.97;;;20.53;;
20751;SDS011;10536;51.582;5.016;2022-11-20T09:12:21;36.10;;;21.10;;
20751;SDS011;10536;51.582;5.016;2022-11-20T09:17:21;41.03;;;22.30;;
20751;SDS011;10536;51.582;5.016;2022-11-20T09:22:21;40.33;;;22.35;;
20751;SDS011;10536;51.582;5.016;2022-11-20T09:27:22;45.60;;;22.60;;
20751;SDS011;10536;51.582;5.016;2022-11-20T09:32:22;45.15;;;22.02;;
20751;SDS011;10536;51.582;5.016;2022-11-20T09:37:23;46.70;;;22.77;;
20751;SDS011;10536;51.582;5.016;2022-11-20T09:47:36;40.35;;;22.17;;
20751;SDS011;10536;51.582;5.016;2022-11-20T09:58:22;44.65;;;23.10;;
20751;SDS011;10536;51.582;5.016;2022-11-20T10:03:49;48.05;;;24.10;;
20751;SDS011;10536;51.582;5.016;2022-11-20T10:09:43;55.88;;;25.35;;
20751;SDS011;10536;51.582;5.016;2022-11-20T10:14:26;43.88;;;23.38;;
20751;SDS011;10536;51.582;5.016;2022-11-20T10:24:57;44.33;;;24.02;;
20751;SDS011;10536;51.582;5.016;2022-11-20T10:30:11;47.45;;;24.83;;
20751;SDS011;10536;51.582;5.016;2022-11-20T10:40:25;54.07;;;25.37;;
20751;SDS011;10536;51.582;5.016;2022-11-20T10:45:58;54.13;;;26.15;;
20751;SDS011;10536;51.582;5.016;2022-11-20T10:51:47;62.42;;;28.52;;
20751;SDS011;10536;51.582;5.016;2022-11-20T11:01:51;78.15;;;32.25;;
20751;SDS011;10536;51.582;5.016;2022-11-20T11:06:51;69.32;;;31.70;;
20751;SDS011;10536;51.582;5.016;2022-11-20T11:11:58;71.63;;;30.92;;
20751;SDS011;10536;51.582;5.016;2022-11-20T11:16:59;77.63;;;34.45;;
20751;SDS011;10536;51.582;5.016;2022-11-20T11:21:59;78.65;;;33.60;;
20751;SDS011;10536;51.582;5.016;2022-11-20T11:27:01;77.93;;;33.85;;
20751;SDS011;10536;51.582;5.016;2022-11-20T11:32:13;79.30;;;34.38;;
20751;SDS011;10536;51.582;5.016;2022-11-20T11:37:17;78.60;;;33.55;;
20751;SDS011;10536;51.582;5.016;2022-11-20T11:42:19;78.55;;;34.80;;
20751;SDS011;10536;51.582;5.016;2022-11-20T11:52:23;89.97;;;39.20;;
20751;SDS011;10536;51.582;5.016;2022-11-20T12:07:55;83.90;;;36.00;;
20751;SDS011;10536;51.582;5.016;2022-11-20T12:13:04;83.25;;;36.88;;
20751;SDS011;10536;51.582;5.016;2022-11-20T12:18:18;86.60;;;35.15;;
20751;SDS011;10536;51.582;5.016;2022-11-20T12:23:23;84.32;;;35.38;;
20751;SDS011;10536;51.582;5.016;2022-11-20T12:28:30;85.28;;;36.90;;
20751;SDS011;10536;51.582;5.016;2022-11-20T12:44:47;88.65;;;34.25;;
20751;SDS011;10536;51.582;5.016;2022-11-20T13:06:52;89.38;;;36.63;;
20751;SDS011;10536;51.582;5.016;2022-11-20T13:12:08;88.00;;;34.13;;
20751;SDS011;10536;51.582;5.016;2022-11-20T13:22:43;95.90;;;35.13;;
20751;SDS011;10536;51.582;5.016;2022-11-20T13:27:58;91.57;;;34.45;;
20751;SDS011;10536;51.582;5.016;2022-11-20T13:38:05;87.07;;;34.35;;
20751;SDS011;10536;51.582;5.016;2022-11-20T13:43:16;93.23;;;34.90;;
20751;SDS011;10536;51.582;5.016;2022-11-20T13:48:21;94.28;;;36.17;;
20751;SDS011;10536;51.582;5.016;2022-11-20T13:58:49;94.85;;;36.15;;
20751;SDS011;10536;51.582;5.016;2022-11-20T14:04:08;102.72;;;35.50;;
20751;SDS011;10536;51.582;5.016;2022-11-20T14:09:10;113.28;;;37.17;;
20751;SDS011;10536;51.582;5.016;2022-11-20T14:14:17;110.90;;;38.10;;
20751;SDS011;10536;51.582;5.016;2022-11-20T14:19:24;109.82;;;35.97;;
20751;SDS011;10536;51.582;5.016;2022-11-20T14:24:27;111.28;;;36.83;;
20751;SDS011;10536;51.582;5.016;2022-11-20T14:29:28;121.67;;;38.40;;
20751;SDS011;10536;51.582;5.016;2022-11-20T14:34:35;131.77;;;38.35;;
20751;SDS011;10536;51.582;5.016;2022-11-20T14:39:43;138.15;;;38.33;;
20751;SDS011;10536;51.582;5.016;2022-11-20T14:44:50;122.50;;;38.30;;
20751;SDS011;10536;51.582;5.016;2022-11-20T14:49:52;131.27;;;43.05;;
20751;SDS011;10536;51.582;5.016;2022-11-20T14:54:55;121.63;;;37.80;;
20751;SDS011;10536;51.582;5.016;2022-11-20T15:05:10;124.45;;;38.13;;
20751;SDS011;10536;51.582;5.016;2022-11-20T15:10:12;133.60;;;41.75;;
20751;SDS011;10536;51.582;5.016;2022-11-20T15:20:44;143.20;;;41.67;;
20751;SDS011;10536;51.582;5.016;2022-11-20T15:25:44;198.70;;;71.75;;
20751;SDS011;10536;51.582;5.016;2022-11-20T15:30:46;134.57;;;39.63;;
20751;SDS011;10536;51.582;5.016;2022-11-20T15:35:48;139.48;;;46.35;;
20751;SDS011;10536;51.582;5.016;2022-11-20T15:40:48;280.05;;;123.03;;
20751;SDS011;10536;51.582;5.016;2022-11-20T15:45:50;187.02;;;66.85;;
20751;SDS011;10536;51.582;5.016;2022-11-20T15:50:56;143.77;;;51.72;;
20751;SDS011;10536;51.582;5.016;2022-11-20T15:55:59;133.13;;;39.75;;
20751;SDS011;10536;51.582;5.016;2022-11-20T16:01:00;146.07;;;52.85;;
20751;SDS011;10536;51.582;5.016;2022-11-20T16:06:00;153.53;;;63.60;;
20751;SDS011;10536;51.582;5.016;2022-11-20T16:11:01;210.60;;;114.03;;
20751;SDS011;10536;51.582;5.016;2022-11-20T16:16:04;90.03;;;31.35;;
20751;SDS011;10536;51.582;5.016;2022-11-20T16:21:10;75.03;;;26.90;;
20751;SDS011;10536;51.582;5.016;2022-11-20T16:26:13;68.63;;;26.48;;
20751;SDS011;10536;51.582;5.016;2022-11-20T16:31:17;79.83;;;27.33;;
20751;SDS011;10536;51.582;5.016;2022-11-20T16:36:19;69.22;;;26.45;;
20751;SDS011;10536;51.582;5.016;2022-11-20T16:41:22;56.50;;;27.58;;
20751;SDS011;10536;51.582;5.016;2022-11-20T16:46:24;65.10;;;34.17;;
20751;SDS011;10536;51.582;5.016;2022-11-20T16:51:27;173.57;;;85.30;;
20751;SDS011;10536;51.582;5.016;2022-11-20T16:56:29;53.42;;;30.17;;
20751;SDS011;10536;51.582;5.016;2022-11-20T17:01:30;43.13;;;30.25;;
20751;SDS011;10536;51.582;5.016;2022-11-20T17:06:35;46.47;;;24.75;;
20751;SDS011;10536;51.582;5.016;2022-11-20T17:11:39;45.33;;;21.80;;
20751;SDS011;10536;51.582;5.016;2022-11-20T17:16:39;40.08;;;19.25;;
20751;SDS011;10536;51.582;5.016;2022-11-20T17:21:40;23.00;;;11.20;;
20751;SDS011;10536;51.582;5.016;2022-11-20T17:26:41;23.90;;;9.52;;
20751;SDS011;10536;51.582;5.016;2022-11-20T17:31:43;15.73;;;9.48;;
20751;SDS011;10536;51.582;5.016;2022-11-20T17:36:44;13.85;;;8.40;;
20751;SDS011;10536;51.582;5.016;2022-11-20T17:41:45;14.52;;;8.98;;
20751;SDS011;10536;51.582;5.016;2022-11-20T17:47:05;22.63;;;11.32;;
20751;SDS011;10536;51.582;5.016;2022-11-20T17:52:06;18.58;;;11.30;;
20751;SDS011;10536;51.582;5.016;2022-11-20T17:57:07;21.95;;;13.05;;
20751;SDS011;10536;51.582;5.016;2022-11-20T18:02:26;19.17;;;12.18;;
20751;SDS011;10536;51.582;5.016;2022-11-20T18:07:27;24.85;;;13.43;;
20751;SDS011;10536;51.582;5.016;2022-11-20T18:12:27;23.95;;;14.13;;
20751;SDS011;10536;51.582;5.016;2022-11-20T18:17:28;34.85;;;15.73;;
20751;SDS011;10536;51.582;5.016;2022-11-20T18:22:28;28.67;;;16.55;;
20751;SDS011;10536;51.582;5.016;2022-11-20T18:27:29;41.30;;;17.87;;
20751;SDS011;10536;51.582;5.016;2022-11-20T18:32:29;38.67;;;18.70;;
20751;SDS011;10536;51.582;5.016;2022-11-20T18:37:30;37.33;;;19.67;;
20751;SDS011;10536;51.582;5.016;2022-11-20T18:42:31;38.03;;;18.92;;
20751;SDS011;10536;51.582;5.016;2022-11-20T18:47:50;51.30;;;22.00;;
20751;SDS011;10536;51.582;5.016;2022-11-20T18:52:50;55.37;;;27.23;;
20751;SDS011;10536;51.582;5.016;2022-11-20T18:57:51;46.70;;;22.17;;
20751;SDS011;10536;51.582;5.016;2022-11-20T19:02:52;53.78;;;23.67;;
20751;SDS011;10536;51.582;5.016;2022-11-20T19:07:54;40.85;;;21.92;;
20751;SDS011;10536;51.582;5.016;2022-11-20T19:12:55;50.88;;;22.67;;
20751;SDS011;10536;51.582;5.016;2022-11-20T19:17:57;50.70;;;25.27;;
20751;SDS011;10536;51.582;5.016;2022-11-20T19:23:00;54.90;;;26.02;;
20751;SDS011;10536;51.582;5.016;2022-11-20T19:28:01;57.20;;;28.38;;
20751;SDS011;10536;51.582;5.016;2022-11-20T19:33:01;54.93;;;27.83;;
20751;SDS011;10536;51.582;5.016;2022-11-20T19:38:01;71.27;;;29.07;;
20751;SDS011;10536;51.582;5.016;2022-11-20T19:43:02;91.15;;;37.42;;
20751;SDS011;10536;51.582;5.016;2022-11-20T19:48:04;89.30;;;37.80;;
20751;SDS011;10536;51.582;5.016;2022-11-20T19:53:04;68.82;;;28.77;;
20751;SDS011;10536;51.582;5.016;2022-11-20T19:58:06;69.93;;;28.08;;
20751;SDS011;10536;51.582;5.016;2022-11-20T20:03:07;91.57;;;35.23;;
20751;SDS011;10536;51.582;5.016;2022-11-20T20:08:08;73.90;;;31.23;;
20751;SDS011;10536;51.582;5.016;2022-11-20T20:13:08;62.30;;;25.58;;
20751;SDS011;10536;51.582;5.016;2022-11-20T20:18:09;62.10;;;26.92;;
20751;SDS011;10536;51.582;5.016;2022-11-20T20:23:10;62.97;;;25.92;;
20751;SDS011;10536;51.582;5.016;2022-11-20T20:28:10;94.13;;;36.50;;
20751;SDS011;10536;51.582;5.016;2022-11-20T20:33:11;74.85;;;28.88;;
20751;SDS011;10536;51.582;5.016;2022-11-20T20:38:11;84.63;;;28.97;;
20751;SDS011;10536;51.582;5.016;2022-11-20T20:43:12;76.72;;;30.08;;
20751;SDS011;10536;51.582;5.016;2022-11-20T20:48:17;84.07;;;32.35;;
20751;SDS011;10536;51.582;5.016;2022-11-20T20:53:18;83.50;;;33.22;;
20751;SDS011;10536;51.582;5.016;2022-11-20T20:58:19;62.17;;;25.77;;
20751;SDS011;10536;51.582;5.016;2022-11-20T21:03:19;49.47;;;20.47;;
20751;SDS011;10536;51.582;5.016;2022-11-20T21:08:20;63.03;;;22.60;;
20751;SDS011;10536;51.582;5.016;2022-11-20T21:13:21;64.90;;;23.70;;
20751;SDS011;10536;51.582;5.016;2022-11-20T21:18:24;216.15;;;59.00;;
20751;SDS011;10536;51.582;5.016;2022-11-20T21:23:24;207.00;;;50.40;;
20751;SDS011;10536;51.582;5.016;2022-11-20T21:28:25;69.97;;;25.05;;
20751;SDS011;10536;51.582;5.016;2022-11-20T21:33:25;72.33;;;17.30;;
20751;SDS011;10536;51.582;5.016;2022-11-20T21:38:26;41.53;;;12.10;;
20751;SDS011;10536;51.582;5.016;2022-11-20T21:43:26;49.60;;;12.10;;
20751;SDS011;10536;51.582;5.016;2022-11-20T21:48:28;48.30;;;10.30;;
20751;SDS011;10536;51.582;5.016;2022-11-20T21:53:32;57.85;;;11.48;;
20751;SDS011;10536;51.582;5.016;2022-11-20T21:58:34;49.03;;;7.50;;
20751;SDS011;10536;51.582;5.016;2022-11-20T22:03:36;45.38;;;8.85;;
20751;SDS011;10536;51.582;5.016;2022-11-20T22:08:37;55.33;;;8.55;;
20751;SDS011;10536;51.582;5.016;2022-11-20T22:13:37;51.90;;;8.45;;
20751;SDS011;10536;51.582;5.016;2022-11-20T22:18:58;50.00;;;7.38;;
20751;SDS011;10536;51.582;5.016;2022-11-20T22:23:59;47.90;;;5.60;;
20751;SDS011;10536;51.582;5.016;2022-11-20T22:29:00;31.25;;;5.40;;
20751;SDS011;10536;51.582;5.016;2022-11-20T22:34:00;39.60;;;9.30;;
20751;SDS011;10536;51.582;5.016;2022-11-20T22:39:02;55.17;;;13.15;;
20751;SDS011;10536;51.582;5.016;2022-11-20T22:44:04;57.40;;;20.80;;
20751;SDS011;10536;51.582;5.016;2022-11-20T22:49:06;62.83;;;18.67;;
20751;SDS011;10536;51.582;5.016;2022-11-20T22:54:10;81.13;;;24.60;;
20751;SDS011;10536;51.582;5.016;2022-11-20T22:59:11;46.70;;;7.72;;
20751;SDS011;10536;51.582;5.016;2022-11-20T23:04:12;22.85;;;6.30;;
20751;SDS011;10536;51.582;5.016;2022-11-20T23:09:12;43.95;;;9.10;;
20751;SDS011;10536;51.582;5.016;2022-11-20T23:14:13;34.00;;;8.60;;
20751;SDS011;10536;51.582;5.016;2022-11-20T23:19:14;34.17;;;7.15;;
20751;SDS011;10536;51.582;5.016;2022-11-20T23:24:15;57.28;;;8.48;;
20751;SDS011;10536;51.582;5.016;2022-11-20T23:29:15;33.15;;;7.32;;
20751;SDS011;10536;51.582;5.016;2022-11-20T23:34:16;41.97;;;7.07;;
20751;SDS011;10536;51.582;5.016;2022-11-20T23:39:17;37.55;;;6.55;;
20751;SDS011;10536;51.582;5.016;2022-11-20T23:44:18;41.85;;;5.60;;
20751;SDS011;10536;51.582;5.016;2022-11-20T23:49:18;37.33;;;6.03;;
20751;SDS011;10536;51.582;5.016;2022-11-20T23:54:19;40.40;;;6.00;;
20751;SDS011;10536;51.582;5.016;2022-11-20T23:59:19;36.85;;;6.13;;
